createdAt,value
2019-04-16T00:00:14.984Z,51.85
2019-04-16T00:01:15.048Z,51.95
2019-04-16T00:02:18.563Z,51.85
2019-04-16T00:03:14.977Z,51.64
2019-04-16T00:04:14.946Z,53.10
2019-04-16T00:05:14.926Z,53.31
2019-04-16T00:06:14.918Z,54.33
2019-04-16T00:07:14.946Z,55.26
2019-04-16T00:08:27.231Z,55.46
2019-04-16T00:09:14.905Z,55.08
2019-04-16T00:10:14.871Z,54.97
2019-04-16T00:11:14.863Z,55.18
2019-04-16T00:12:14.892Z,55.00
2019-04-16T00:13:14.890Z,54.79
2019-04-16T00:14:14.828Z,53.97
2019-04-16T00:15:14.822Z,54.28
2019-04-16T00:16:14.807Z,53.54
2019-04-16T00:17:15.842Z,53.15
2019-04-16T00:18:18.412Z,53.36
2019-04-16T00:19:14.771Z,52.92
2019-04-16T00:20:14.762Z,52.82
2019-04-16T00:21:14.749Z,53.33
2019-04-16T00:22:14.738Z,53.77
2019-04-16T00:23:14.758Z,53.77
2019-04-16T00:24:18.152Z,54.49
2019-04-16T00:25:14.708Z,53.87
2019-04-16T00:26:14.693Z,54.28
2019-04-16T00:27:14.681Z,55.30
2019-04-16T00:28:14.695Z,54.28
2019-04-16T00:29:14.660Z,55.30
2019-04-16T00:30:14.665Z,55.02
2019-04-16T00:31:14.641Z,54.51
2019-04-16T00:32:14.630Z,55.43
2019-04-16T00:33:14.637Z,55.43
2019-04-16T00:34:14.620Z,55.13
2019-04-16T00:35:15.657Z,55.95
2019-04-16T00:36:15.435Z,55.54
2019-04-16T00:37:14.569Z,55.54
2019-04-16T00:38:14.582Z,56.05
2019-04-16T00:39:14.547Z,55.95
2019-04-16T00:40:14.534Z,55.26
2019-04-16T00:41:14.563Z,55.77
2019-04-16T00:42:14.513Z,56.79
2019-04-16T00:43:14.532Z,56.49
2019-04-16T00:44:14.499Z,56.90
2019-04-16T00:45:14.480Z,57.21
2019-04-16T00:46:14.470Z,57.00
2019-04-16T00:47:14.464Z,57.10
2019-04-16T00:48:14.479Z,57.00
2019-04-16T00:49:14.435Z,57.10
2019-04-16T00:50:14.441Z,57.00
2019-04-16T00:51:14.411Z,58.16
2019-04-16T00:52:14.398Z,58.16
2019-04-16T00:53:14.413Z,57.95
2019-04-16T00:54:14.382Z,57.03
2019-04-16T00:55:14.766Z,57.93
2019-04-16T00:56:16.213Z,57.82
2019-04-16T00:57:17.668Z,56.38
2019-04-16T00:58:14.356Z,56.79
2019-04-16T00:59:14.320Z,57.00
2019-04-16T01:00:14.312Z,57.72
2019-04-16T01:01:14.298Z,57.31
2019-04-16T01:02:14.288Z,57.00
2019-04-16T01:03:14.297Z,57.03
2019-04-16T01:04:14.275Z,56.41
2019-04-16T01:05:14.256Z,56.72
2019-04-16T01:06:14.242Z,57.23
2019-04-16T01:07:14.233Z,57.64
2019-04-16T01:08:14.245Z,57.23
2019-04-16T01:09:14.211Z,56.59
2019-04-16T01:10:14.197Z,57.54
2019-04-16T01:11:14.192Z,57.82
2019-04-16T01:12:14.211Z,57.75
2019-04-16T01:13:14.186Z,57.54
2019-04-16T01:14:14.155Z,58.16
2019-04-16T01:15:14.205Z,58.18
2019-04-16T01:16:14.132Z,58.16
2019-04-16T01:17:14.125Z,58.39
2019-04-16T01:18:14.147Z,58.36
2019-04-16T01:19:14.097Z,58.91
2019-04-16T01:20:14.090Z,58.18
2019-04-16T01:21:14.887Z,57.98
2019-04-16T01:22:16.076Z,57.98
2019-04-16T01:23:17.535Z,58.18
2019-04-16T01:24:14.108Z,57.98
2019-04-16T01:25:14.034Z,58.18
2019-04-16T01:26:14.019Z,58.06
2019-04-16T01:27:14.019Z,58.08
2019-04-16T01:28:14.001Z,58.59
2019-04-16T01:29:14.012Z,58.80
2019-04-16T01:30:13.989Z,58.29
2019-04-16T01:31:13.972Z,58.08
2019-04-16T01:32:13.963Z,59.63
2019-04-16T01:33:14.641Z,58.80
2019-04-16T01:34:15.252Z,58.80
2019-04-16T01:35:18.581Z,58.59
2019-04-16T01:36:14.908Z,59.11
2019-04-16T01:37:13.905Z,59.31
2019-04-16T01:38:13.882Z,58.70
2019-04-16T01:39:17.908Z,58.80
2019-04-16T01:40:18.379Z,58.83
2019-04-16T01:41:13.852Z,58.01
2019-04-16T01:42:13.912Z,58.39
2019-04-16T01:43:13.826Z,58.59
2019-04-16T01:44:13.835Z,59.55
2019-04-16T01:45:13.806Z,59.52
2019-04-16T01:46:13.794Z,59.22
2019-04-16T01:47:13.812Z,59.65
2019-04-16T01:48:13.805Z,59.83
2019-04-16T01:49:13.864Z,60.17
2019-04-16T01:50:14.137Z,60.14
2019-04-16T01:51:15.418Z,60.06
2019-04-16T01:52:13.732Z,60.47
2019-04-16T01:53:13.801Z,59.96
2019-04-16T01:54:13.780Z,59.75
2019-04-16T01:55:13.694Z,60.17
2019-04-16T01:56:13.680Z,60.06
2019-04-16T01:57:13.673Z,60.27
2019-04-16T01:58:13.661Z,59.47
2019-04-16T01:59:13.746Z,59.99
2019-04-16T02:00:13.642Z,60.30
2019-04-16T02:01:13.638Z,60.30
2019-04-16T02:02:15.761Z,60.61
2019-04-16T02:03:17.545Z,60.61
2019-04-16T02:04:13.614Z,60.91
2019-04-16T02:05:13.581Z,60.61
2019-04-16T02:06:13.567Z,60.40
2019-04-16T02:07:13.556Z,61.12
2019-04-16T02:08:13.544Z,60.71
2019-04-16T02:09:22.382Z,61.12
2019-04-16T02:10:13.535Z,60.50
2019-04-16T02:11:13.511Z,60.81
2019-04-16T02:12:14.152Z,60.61
2019-04-16T02:13:15.214Z,61.12
2019-04-16T02:14:14.582Z,61.02
2019-04-16T02:15:13.466Z,61.33
2019-04-16T02:16:13.454Z,61.94
2019-04-16T02:17:13.449Z,61.84
2019-04-16T02:18:13.437Z,61.74
2019-04-16T02:19:13.467Z,61.22
2019-04-16T02:20:13.408Z,60.71
2019-04-16T02:21:13.402Z,61.12
2019-04-16T02:22:14.087Z,60.61
2019-04-16T02:23:16.258Z,61.05
2019-04-16T02:24:13.598Z,61.05
2019-04-16T02:25:13.355Z,61.15
2019-04-16T02:26:13.340Z,60.94
2019-04-16T02:27:13.330Z,60.74
2019-04-16T02:28:13.323Z,60.74
2019-04-16T02:29:13.333Z,60.91
2019-04-16T02:30:13.307Z,60.33
2019-04-16T02:31:16.048Z,60.84
2019-04-16T02:32:13.277Z,61.25
2019-04-16T02:33:13.264Z,61.49
2019-04-16T02:34:13.683Z,61.18
2019-04-16T02:35:13.259Z,61.28
2019-04-16T02:36:13.256Z,61.38
2019-04-16T02:37:13.226Z,61.82
2019-04-16T02:38:14.246Z,62.82
2019-04-16T02:39:13.203Z,62.62
2019-04-16T02:40:18.493Z,61.90
2019-04-16T02:41:13.179Z,62.34
2019-04-16T02:42:13.163Z,62.82
2019-04-16T02:43:13.212Z,62.96
2019-04-16T02:44:16.315Z,62.96
2019-04-16T02:45:13.207Z,63.37
2019-04-16T02:46:13.574Z,63.17
2019-04-16T02:47:13.443Z,62.54
2019-04-16T02:48:16.664Z,63.17
2019-04-16T02:49:13.089Z,62.78
2019-04-16T02:50:13.096Z,62.99
2019-04-16T02:51:13.062Z,63.50
2019-04-16T02:52:16.454Z,63.57
2019-04-16T02:53:13.079Z,63.37
2019-04-16T02:54:13.029Z,63.40
2019-04-16T02:55:13.056Z,63.09
2019-04-16T02:56:17.199Z,63.19
2019-04-16T02:57:13.998Z,63.92
2019-04-16T02:58:12.990Z,63.17
2019-04-16T02:59:13.655Z,64.09
2019-04-16T03:00:17.603Z,64.22
2019-04-16T03:01:13.952Z,62.85
2019-04-16T03:02:12.941Z,63.57
2019-04-16T03:03:12.931Z,62.75
2019-04-16T03:04:12.918Z,63.40
2019-04-16T03:05:12.935Z,63.17
2019-04-16T03:06:12.896Z,62.68
2019-04-16T03:07:12.882Z,63.99
2019-04-16T03:08:12.872Z,63.09
2019-04-16T03:09:12.868Z,63.60
2019-04-16T03:10:13.867Z,63.37
2019-04-16T03:11:16.244Z,63.40
2019-04-16T03:12:12.829Z,63.09
2019-04-16T03:13:12.921Z,63.37
2019-04-16T03:14:12.806Z,63.57
2019-04-16T03:15:12.884Z,63.60
2019-04-16T03:16:12.829Z,63.50
2019-04-16T03:17:12.775Z,63.40
2019-04-16T03:18:14.867Z,63.19
2019-04-16T03:19:12.748Z,63.19
2019-04-16T03:20:12.761Z,63.17
2019-04-16T03:21:12.740Z,63.50
2019-04-16T03:22:12.906Z,63.19
2019-04-16T03:23:12.710Z,63.47
2019-04-16T03:24:12.893Z,63.50
2019-04-16T03:25:14.127Z,63.17
2019-04-16T03:26:16.190Z,62.85
2019-04-16T03:27:12.669Z,63.09
2019-04-16T03:28:12.651Z,62.68
2019-04-16T03:29:12.641Z,63.06
2019-04-16T03:30:12.652Z,62.85
2019-04-16T03:31:19.377Z,63.19
2019-04-16T03:32:14.794Z,63.09
2019-04-16T03:33:14.926Z,63.19
2019-04-16T03:34:12.883Z,63.09
2019-04-16T03:35:12.632Z,63.92
2019-04-16T03:36:12.559Z,63.29
2019-04-16T03:37:12.563Z,63.50
2019-04-16T03:38:12.541Z,62.99
2019-04-16T03:39:13.876Z,62.88
2019-04-16T03:40:17.373Z,62.88
2019-04-16T03:41:13.515Z,63.81
2019-04-16T03:42:12.493Z,63.09
2019-04-16T03:43:12.485Z,63.09
2019-04-16T03:44:12.475Z,63.19
2019-04-16T03:45:12.576Z,63.09
2019-04-16T03:46:13.935Z,62.78
2019-04-16T03:47:12.465Z,63.40
2019-04-16T03:48:12.428Z,63.19
2019-04-16T03:49:12.419Z,62.81
2019-04-16T03:50:12.445Z,62.99
2019-04-16T03:51:12.411Z,63.19
2019-04-16T03:52:12.382Z,62.88
2019-04-16T03:53:16.293Z,62.78
2019-04-16T03:54:12.364Z,62.78
2019-04-16T03:55:12.367Z,63.22
2019-04-16T03:56:12.366Z,62.99
2019-04-16T03:57:12.382Z,63.09
2019-04-16T03:58:12.317Z,62.78
2019-04-16T03:59:12.565Z,63.22
2019-04-16T04:00:13.165Z,62.99
2019-04-16T04:01:14.246Z,62.88
2019-04-16T04:02:15.073Z,62.78
2019-04-16T04:03:12.352Z,63.53
2019-04-16T04:04:12.255Z,62.81
2019-04-16T04:05:12.238Z,63.32
2019-04-16T04:06:12.249Z,63.53
2019-04-16T04:07:13.416Z,63.22
2019-04-16T04:08:16.333Z,63.22
2019-04-16T04:09:12.195Z,63.32
2019-04-16T04:10:12.185Z,63.22
2019-04-16T04:11:12.272Z,63.01
2019-04-16T04:12:12.977Z,63.12
2019-04-16T04:13:17.484Z,63.12
2019-04-16T04:14:12.186Z,63.22
2019-04-16T04:15:12.150Z,63.43
2019-04-16T04:16:12.229Z,63.22
2019-04-16T04:17:12.263Z,63.12
2019-04-16T04:18:12.905Z,62.84
2019-04-16T04:19:15.369Z,62.71
2019-04-16T04:20:14.604Z,63.32
2019-04-16T04:21:13.307Z,63.53
2019-04-16T04:22:12.049Z,63.53
2019-04-16T04:23:12.040Z,63.15
2019-04-16T04:24:12.031Z,63.77
2019-04-16T04:25:12.019Z,63.97
2019-04-16T04:26:12.185Z,63.67
2019-04-16T04:27:14.769Z,63.56
2019-04-16T04:28:12.012Z,63.67
2019-04-16T04:29:11.974Z,63.56
2019-04-16T04:30:11.982Z,63.87
2019-04-16T04:31:11.975Z,63.77
2019-04-16T04:32:11.942Z,64.28
2019-04-16T04:33:11.964Z,63.67
2019-04-16T04:34:15.900Z,63.97
2019-04-16T04:35:11.913Z,63.97
2019-04-16T04:36:12.224Z,63.87
2019-04-16T04:37:11.929Z,63.56
2019-04-16T04:38:11.874Z,63.97
2019-04-16T04:39:15.233Z,63.67
2019-04-16T04:40:15.376Z,63.77
2019-04-16T04:41:11.879Z,63.87
2019-04-16T04:42:11.839Z,63.87
2019-04-16T04:43:11.856Z,63.77
2019-04-16T04:44:12.027Z,64.07
2019-04-16T04:45:11.847Z,63.67
2019-04-16T04:46:14.813Z,64.07
2019-04-16T04:47:11.962Z,64.07
2019-04-16T04:48:12.272Z,63.77
2019-04-16T04:49:11.785Z,63.69
2019-04-16T04:50:11.742Z,64.07
2019-04-16T04:51:11.757Z,64.21
2019-04-16T04:52:14.715Z,65.03
2019-04-16T04:53:11.709Z,64.73
2019-04-16T04:54:11.698Z,65.03
2019-04-16T04:55:11.686Z,64.93
2019-04-16T04:56:11.701Z,64.83
2019-04-16T04:57:11.678Z,64.31
2019-04-16T04:58:11.653Z,64.73
2019-04-16T04:59:11.644Z,64.83
2019-04-16T05:00:11.639Z,64.93
2019-04-16T05:01:13.614Z,65.03
2019-04-16T05:02:14.261Z,64.93
2019-04-16T05:03:12.405Z,64.93
2019-04-16T05:04:11.586Z,64.93
2019-04-16T05:05:11.593Z,64.62
2019-04-16T05:06:11.600Z,65.03
2019-04-16T05:07:11.555Z,65.24
2019-04-16T05:08:11.555Z,65.03
2019-04-16T05:09:11.532Z,65.03
2019-04-16T05:10:11.521Z,65.03
2019-04-16T05:11:14.692Z,64.62
2019-04-16T05:12:11.526Z,65.03
2019-04-16T05:13:11.488Z,64.70
2019-04-16T05:14:11.479Z,64.93
2019-04-16T05:15:11.468Z,65.00
2019-04-16T05:16:11.522Z,64.80
2019-04-16T05:17:11.499Z,65.00
2019-04-16T05:18:11.622Z,64.80
2019-04-16T05:19:14.850Z,65.00
2019-04-16T05:20:15.094Z,64.80
2019-04-16T05:21:11.405Z,64.90
2019-04-16T05:22:11.414Z,65.00
2019-04-16T05:23:11.414Z,65.11
2019-04-16T05:24:11.366Z,63.97
2019-04-16T05:25:11.364Z,63.97
2019-04-16T05:26:11.349Z,63.87
2019-04-16T05:27:11.356Z,63.22
2019-04-16T05:28:12.721Z,63.43
2019-04-16T05:29:16.139Z,63.53
2019-04-16T05:30:11.303Z,63.43
2019-04-16T05:31:11.291Z,63.67
2019-04-16T05:32:11.345Z,63.64
2019-04-16T05:33:11.421Z,63.53
2019-04-16T05:34:11.264Z,63.84
2019-04-16T05:35:11.277Z,63.64
2019-04-16T05:36:14.287Z,63.43
2019-04-16T05:37:11.257Z,63.22
2019-04-16T05:38:11.213Z,63.32
2019-04-16T05:39:11.260Z,63.01
2019-04-16T05:40:11.201Z,62.99
2019-04-16T05:41:13.532Z,63.50
2019-04-16T05:42:11.217Z,63.29
2019-04-16T05:43:11.158Z,63.09
2019-04-16T05:44:11.253Z,63.09
2019-04-16T05:45:11.436Z,62.78
2019-04-16T05:46:11.502Z,62.99
2019-04-16T05:47:11.337Z,63.09
2019-04-16T05:48:11.346Z,62.68
2019-04-16T05:49:11.503Z,63.06
2019-04-16T05:50:11.076Z,62.65
2019-04-16T05:51:11.162Z,62.88
2019-04-16T05:52:11.084Z,62.65
2019-04-16T05:53:13.239Z,62.96
2019-04-16T05:54:12.306Z,62.65
2019-04-16T05:55:16.913Z,62.65
2019-04-16T05:56:11.013Z,62.85
2019-04-16T05:57:11.022Z,63.13
2019-04-16T05:58:10.991Z,62.44
2019-04-16T05:59:10.979Z,62.82
2019-04-16T06:00:10.981Z,62.54
2019-04-16T06:01:13.621Z,62.65
2019-04-16T06:02:11.034Z,63.13
2019-04-16T06:03:10.934Z,62.31
2019-04-16T06:04:10.919Z,62.21
2019-04-16T06:05:10.906Z,62.72
2019-04-16T06:06:10.897Z,62.52
2019-04-16T06:07:10.922Z,62.41
2019-04-16T06:08:10.889Z,62.00
2019-04-16T06:09:12.241Z,62.93
2019-04-16T06:10:17.007Z,62.38
2019-04-16T06:11:11.846Z,61.87
2019-04-16T06:12:10.854Z,61.46
2019-04-16T06:13:12.695Z,60.94
2019-04-16T06:14:16.962Z,59.81
2019-04-16T06:15:10.805Z,59.68
2019-04-16T06:16:10.803Z,59.89
2019-04-16T06:17:10.801Z,58.65
2019-04-16T06:18:10.766Z,59.06
2019-04-16T06:19:11.455Z,59.47
2019-04-16T06:20:10.741Z,57.70
2019-04-16T06:21:10.727Z,57.80
2019-04-16T06:22:10.749Z,58.11
2019-04-16T06:23:10.718Z,58.29
2019-04-16T06:24:10.693Z,57.78
2019-04-16T06:25:11.152Z,57.78
2019-04-16T06:26:14.557Z,57.88
2019-04-16T06:27:10.679Z,57.67
2019-04-16T06:28:10.680Z,57.13
2019-04-16T06:29:10.643Z,56.62
2019-04-16T06:30:10.626Z,55.79
2019-04-16T06:31:10.662Z,56.41
2019-04-16T06:32:11.888Z,55.98
2019-04-16T06:33:10.616Z,55.57
2019-04-16T06:34:10.582Z,55.46
2019-04-16T06:35:10.612Z,55.46
2019-04-16T06:36:10.561Z,55.98
2019-04-16T06:37:10.546Z,54.33
2019-04-16T06:38:10.561Z,54.72
2019-04-16T06:39:10.527Z,54.61
2019-04-16T06:40:10.518Z,54.41
2019-04-16T06:41:10.505Z,54.51
2019-04-16T06:42:10.495Z,55.33
2019-04-16T06:43:10.508Z,54.28
2019-04-16T06:44:10.468Z,53.05
2019-04-16T06:45:10.475Z,54.08
2019-04-16T06:46:10.445Z,54.38
2019-04-16T06:47:11.277Z,54.15
2019-04-16T06:48:13.181Z,52.92
2019-04-16T06:49:10.414Z,53.23
2019-04-16T06:50:10.403Z,52.72
2019-04-16T06:51:12.413Z,52.28
2019-04-16T06:52:15.884Z,52.08
2019-04-16T06:53:11.404Z,53.00
2019-04-16T06:54:11.230Z,52.39
2019-04-16T06:55:10.351Z,52.47
2019-04-16T06:56:10.333Z,52.26
2019-04-16T06:57:12.148Z,52.56
2019-04-16T06:58:12.450Z,51.93
2019-04-16T06:59:10.301Z,51.72
2019-04-16T07:00:10.291Z,51.93
2019-04-16T07:01:10.280Z,51.01
2019-04-16T07:02:10.589Z,51.72
2019-04-16T07:03:10.288Z,51.93
2019-04-16T07:04:10.246Z,51.62
2019-04-16T07:05:10.233Z,50.70
2019-04-16T07:06:10.224Z,50.70
2019-04-16T07:07:10.210Z,50.57
2019-04-16T07:08:10.230Z,49.55
2019-04-16T07:09:10.192Z,50.37
2019-04-16T07:10:10.177Z,51.26
2019-04-16T07:11:10.179Z,50.85
2019-04-16T07:12:10.155Z,51.78
2019-04-16T07:13:11.321Z,51.24
2019-04-16T07:14:11.553Z,51.54
2019-04-16T07:15:10.129Z,50.83
2019-04-16T07:16:10.118Z,48.79
2019-04-16T07:17:10.102Z,49.50
2019-04-16T07:18:10.114Z,48.79
2019-04-16T07:19:11.239Z,49.38
2019-04-16T07:20:13.096Z,50.42
2019-04-16T07:21:10.061Z,50.30
2019-04-16T07:22:10.048Z,51.01
2019-04-16T07:23:10.071Z,50.91
2019-04-16T07:24:10.039Z,49.58
2019-04-16T07:25:10.016Z,49.96
2019-04-16T07:26:13.479Z,49.58
2019-04-16T07:27:09.987Z,50.58
2019-04-16T07:28:10.009Z,50.48
2019-04-16T07:29:09.991Z,50.48
2019-04-16T07:30:09.968Z,50.27
2019-04-16T07:31:13.406Z,48.84
2019-04-16T07:32:09.989Z,48.72
2019-04-16T07:33:09.942Z,48.82
2019-04-16T07:34:09.910Z,48.61
2019-04-16T07:35:09.899Z,48.51
2019-04-16T07:36:09.905Z,50.15
2019-04-16T07:37:09.875Z,47.80
2019-04-16T07:38:11.583Z,48.69
2019-04-16T07:39:13.355Z,49.51
2019-04-16T07:40:10.533Z,49.51
2019-04-16T07:41:11.910Z,50.02
2019-04-16T07:42:12.623Z,48.67
2019-04-16T07:43:09.810Z,50.00
2019-04-16T07:44:11.114Z,48.67
2019-04-16T07:45:12.470Z,48.06
2019-04-16T07:46:09.822Z,48.34
2019-04-16T07:47:09.783Z,47.65
2019-04-16T07:48:09.752Z,48.24
2019-04-16T07:49:09.765Z,48.34
2019-04-16T07:50:09.730Z,49.46
2019-04-16T07:51:09.723Z,48.96
2019-04-16T07:52:12.173Z,48.42
2019-04-16T07:53:13.336Z,49.77
2019-04-16T07:54:09.718Z,48.52
2019-04-16T07:55:09.709Z,47.50
2019-04-16T07:56:09.671Z,48.22
2019-04-16T07:57:09.657Z,48.30
2019-04-16T07:58:09.648Z,47.89
2019-04-16T07:59:09.655Z,47.69
2019-04-16T08:00:09.868Z,48.79
2019-04-16T08:01:12.729Z,48.48
2019-04-16T08:02:09.676Z,47.77
2019-04-16T08:03:09.706Z,47.77
2019-04-16T08:04:09.607Z,48.05
2019-04-16T08:05:09.870Z,49.07
2019-04-16T08:06:10.658Z,49.17
2019-04-16T08:07:09.563Z,49.88
2019-04-16T08:08:09.535Z,48.43
2019-04-16T08:09:09.559Z,48.23
2019-04-16T08:10:09.510Z,48.43
2019-04-16T08:11:09.498Z,49.02
2019-04-16T08:12:22.080Z,49.53
2019-04-16T08:13:09.775Z,49.53
2019-04-16T08:14:10.307Z,48.49
2019-04-16T08:15:14.254Z,47.47
2019-04-16T08:16:09.457Z,46.56
2019-04-16T08:17:09.433Z,46.05
2019-04-16T08:18:09.466Z,46.33
2019-04-16T08:19:12.234Z,46.74
2019-04-16T08:20:09.403Z,46.33
2019-04-16T08:21:12.200Z,44.38
2019-04-16T08:22:09.397Z,44.89
2019-04-16T08:23:09.365Z,46.49
2019-04-16T08:24:09.395Z,45.17
2019-04-16T08:25:09.346Z,45.89
2019-04-16T08:26:12.926Z,45.76
2019-04-16T08:27:10.425Z,45.36
2019-04-16T08:28:09.308Z,43.61
2019-04-16T08:29:09.322Z,44.90
2019-04-16T08:30:09.285Z,45.64
2019-04-16T08:31:12.282Z,42.68
2019-04-16T08:32:09.277Z,42.96
2019-04-16T08:33:11.205Z,43.16
2019-04-16T08:34:09.268Z,40.31
2019-04-16T08:35:09.232Z,40.00
2019-04-16T08:36:09.409Z,38.08
2019-04-16T08:37:09.215Z,38.18
2019-04-16T08:38:09.198Z,38.79
2019-04-16T08:39:09.218Z,38.28
2019-04-16T08:40:12.246Z,38.48
2019-04-16T08:41:12.425Z,38.89
2019-04-16T08:42:09.193Z,39.17
2019-04-16T08:43:09.214Z,38.16
2019-04-16T08:44:10.302Z,38.95
2019-04-16T08:45:09.290Z,39.26
2019-04-16T08:46:11.265Z,38.04
2019-04-16T08:47:12.136Z,38.63
2019-04-16T08:48:09.719Z,37.03
2019-04-16T08:49:09.094Z,37.92
2019-04-16T08:50:11.745Z,38.84
2019-04-16T08:51:09.181Z,37.30
2019-04-16T08:52:10.172Z,38.71
2019-04-16T08:53:13.519Z,36.79
2019-04-16T08:54:10.047Z,37.72
2019-04-16T08:55:09.011Z,38.92
2019-04-16T08:56:09.003Z,36.99
2019-04-16T08:57:08.985Z,35.58
2019-04-16T08:58:12.214Z,35.99
2019-04-16T08:59:10.944Z,35.38
2019-04-16T09:00:14.392Z,37.10
2019-04-16T09:01:09.987Z,37.40
2019-04-16T09:02:08.930Z,38.11
2019-04-16T09:03:09.006Z,36.98
2019-04-16T09:04:08.905Z,35.46
2019-04-16T09:05:11.491Z,37.28
2019-04-16T09:06:12.790Z,38.09
2019-04-16T09:07:12.145Z,35.57
2019-04-16T09:08:13.008Z,37.18
2019-04-16T09:09:13.959Z,35.97
2019-04-16T09:10:17.140Z,35.77
2019-04-16T09:11:22.580Z,36.88
2019-04-16T09:12:09.743Z,37.89
2019-04-16T09:13:08.845Z,37.99
2019-04-16T09:14:08.803Z,36.77
2019-04-16T09:15:08.901Z,37.26
2019-04-16T09:16:10.803Z,38.68
2019-04-16T09:17:09.902Z,37.06
2019-04-16T09:18:08.749Z,35.24
2019-04-16T09:19:08.743Z,37.16
2019-04-16T09:20:08.761Z,37.06
2019-04-16T09:21:10.268Z,35.83
2019-04-16T09:22:08.705Z,35.23
2019-04-16T09:23:08.878Z,35.73
2019-04-16T09:24:09.682Z,36.54
2019-04-16T09:25:12.491Z,35.52
2019-04-16T09:26:14.820Z,36.32
2019-04-16T09:27:08.663Z,36.52
2019-04-16T09:28:23.789Z,36.72
2019-04-16T09:29:10.405Z,35.82
2019-04-16T09:30:10.796Z,35.31
2019-04-16T09:31:09.605Z,36.93
2019-04-16T09:32:08.594Z,35.30
2019-04-16T09:33:08.582Z,34.49
2019-04-16T09:34:08.578Z,34.99
2019-04-16T09:35:11.014Z,34.99
2019-04-16T09:36:08.550Z,34.99
2019-04-16T09:37:08.543Z,35.28
2019-04-16T09:38:09.374Z,35.99
2019-04-16T09:39:08.515Z,35.28
2019-04-16T09:40:16.741Z,35.17
2019-04-16T09:41:08.495Z,35.97
2019-04-16T09:42:08.482Z,34.36
2019-04-16T09:43:16.773Z,33.75
2019-04-16T09:44:08.684Z,34.66
2019-04-16T09:45:08.473Z,35.46
2019-04-16T09:46:10.947Z,37.18
2019-04-16T09:47:08.430Z,35.86
2019-04-16T09:48:08.417Z,36.66
2019-04-16T09:49:08.409Z,37.16
2019-04-16T09:50:11.071Z,35.65
2019-04-16T09:51:08.383Z,36.94
2019-04-16T09:52:08.370Z,37.95
2019-04-16T09:53:08.365Z,36.32
2019-04-16T09:54:12.677Z,36.92
2019-04-16T09:55:08.365Z,37.02
2019-04-16T09:56:08.329Z,36.60
2019-04-16T09:57:08.316Z,36.42
2019-04-16T09:58:08.306Z,35.50
2019-04-16T09:59:11.122Z,36.80
2019-04-16T10:00:09.309Z,37.08
2019-04-16T10:01:08.272Z,37.59
2019-04-16T10:02:08.336Z,36.29
2019-04-16T10:03:08.254Z,36.35
2019-04-16T10:04:08.245Z,35.25
2019-04-16T10:05:08.268Z,33.62
2019-04-16T10:06:08.224Z,33.02
2019-04-16T10:07:08.209Z,33.32
2019-04-16T10:08:09.549Z,31.71
2019-04-16T10:09:08.189Z,33.14
2019-04-16T10:10:08.221Z,33.34
2019-04-16T10:11:08.176Z,34.12
2019-04-16T10:12:08.670Z,34.33
2019-04-16T10:13:08.165Z,32.92
2019-04-16T10:14:08.133Z,32.72
2019-04-16T10:15:08.224Z,32.10
2019-04-16T10:16:08.134Z,33.91
2019-04-16T10:17:08.107Z,33.40
2019-04-16T10:18:08.113Z,32.09
2019-04-16T10:19:09.049Z,33.31
2019-04-16T10:20:08.100Z,34.91
2019-04-16T10:21:08.062Z,34.80
2019-04-16T10:22:08.079Z,34.08
2019-04-16T10:23:08.042Z,32.17
2019-04-16T10:24:08.033Z,31.67
2019-04-16T10:25:08.014Z,32.09
2019-04-16T10:26:08.039Z,31.47
2019-04-16T10:27:08.015Z,31.59
2019-04-16T10:28:07.997Z,31.68
2019-04-16T10:29:07.990Z,31.48
2019-04-16T10:30:07.991Z,31.87
2019-04-16T10:31:07.999Z,31.57
2019-04-16T10:32:07.963Z,30.45
2019-04-16T10:33:07.939Z,31.24
2019-04-16T10:34:07.933Z,30.54
2019-04-16T10:35:07.903Z,31.73
2019-04-16T10:36:08.003Z,29.71
2019-04-16T10:37:07.885Z,28.91
2019-04-16T10:38:07.877Z,28.30
2019-04-16T10:39:07.867Z,29.00
2019-04-16T10:40:07.861Z,31.48
2019-04-16T10:41:07.899Z,30.36
2019-04-16T10:42:07.846Z,30.54
2019-04-16T10:43:07.821Z,29.81
2019-04-16T10:44:07.808Z,28.49
2019-04-16T10:45:07.818Z,27.37
2019-04-16T10:46:09.761Z,26.37
2019-04-16T10:47:07.777Z,26.75
2019-04-16T10:48:07.775Z,27.12
2019-04-16T10:49:07.758Z,26.92
2019-04-16T10:50:07.762Z,26.69
2019-04-16T10:51:07.780Z,25.27
2019-04-16T10:52:07.745Z,23.78
2019-04-16T10:53:07.723Z,25.14
2019-04-16T10:54:07.748Z,23.73
2019-04-16T10:55:09.358Z,22.72
2019-04-16T10:56:07.707Z,23.29
2019-04-16T10:57:10.374Z,23.18
2019-04-16T10:58:07.695Z,22.67
2019-04-16T10:59:07.733Z,22.35
2019-04-16T11:00:07.661Z,21.36
2019-04-16T11:01:07.661Z,22.42
2019-04-16T11:02:10.640Z,22.89
2019-04-16T11:03:07.620Z,22.10
2019-04-16T11:04:07.979Z,22.38
2019-04-16T11:05:07.698Z,20.69
2019-04-16T11:06:07.635Z,20.41
2019-04-16T11:07:07.576Z,21.28
2019-04-16T11:08:08.186Z,22.23
2019-04-16T11:09:07.584Z,21.03
2019-04-16T11:10:07.560Z,20.90
2019-04-16T11:11:07.579Z,20.20
2019-04-16T11:12:07.533Z,18.07
2019-04-16T11:13:07.571Z,18.56
2019-04-16T11:14:07.532Z,19.36
2019-04-16T11:15:07.497Z,19.37
2019-04-16T11:16:07.529Z,19.37
2019-04-16T11:17:07.482Z,19.35
2019-04-16T11:18:07.506Z,19.15
2019-04-16T11:19:07.483Z,18.88
2019-04-16T11:20:08.157Z,19.48
2019-04-16T11:21:07.477Z,18.02
2019-04-16T11:22:07.474Z,19.59
2019-04-16T11:23:08.155Z,20.67
2019-04-16T11:24:07.417Z,18.60
2019-04-16T11:25:07.413Z,19.49
2019-04-16T11:26:07.427Z,19.20
2019-04-16T11:27:07.393Z,19.20
2019-04-16T11:28:07.396Z,19.28
2019-04-16T11:29:07.426Z,17.54
2019-04-16T11:30:07.397Z,19.49
2019-04-16T11:31:07.386Z,19.28
2019-04-16T11:32:07.345Z,19.28
2019-04-16T11:33:07.709Z,19.96
2019-04-16T11:34:07.413Z,20.51
2019-04-16T11:35:07.324Z,17.96
2019-04-16T11:36:18.625Z,19.51
2019-04-16T11:37:09.121Z,19.01
2019-04-16T11:38:07.353Z,18.99
2019-04-16T11:39:07.314Z,18.19
2019-04-16T11:40:07.286Z,16.84
2019-04-16T11:41:07.326Z,18.88
2019-04-16T11:42:07.454Z,17.52
2019-04-16T11:43:07.330Z,18.68
2019-04-16T11:44:15.212Z,18.18
2019-04-16T11:45:07.265Z,17.58
2019-04-16T11:46:07.302Z,16.31
2019-04-16T11:47:07.235Z,17.50
2019-04-16T11:48:07.218Z,18.17
2019-04-16T11:49:07.236Z,17.20
2019-04-16T11:50:07.246Z,16.24
2019-04-16T11:51:07.223Z,17.44
2019-04-16T11:52:07.231Z,16.66
2019-04-16T11:53:07.178Z,18.04
2019-04-16T11:54:08.344Z,18.42
2019-04-16T11:55:07.147Z,17.43
2019-04-16T11:56:07.157Z,18.48
2019-04-16T11:57:07.186Z,17.20
2019-04-16T11:58:07.151Z,16.03
2019-04-16T11:59:07.129Z,16.24
2019-04-16T12:00:08.460Z,16.63
2019-04-16T12:01:07.126Z,16.44
2019-04-16T12:02:07.164Z,16.33
2019-04-16T12:03:07.110Z,17.60
2019-04-16T12:04:07.099Z,17.60
2019-04-16T12:05:07.084Z,18.27
2019-04-16T12:06:07.070Z,18.07
2019-04-16T12:07:07.071Z,16.61
2019-04-16T12:08:07.041Z,16.62
2019-04-16T12:09:07.034Z,16.83
2019-04-16T12:10:07.075Z,17.32
2019-04-16T12:11:07.045Z,18.21
2019-04-16T12:12:07.052Z,19.27
2019-04-16T12:13:07.038Z,18.37
2019-04-16T12:14:10.001Z,16.06
2019-04-16T12:15:06.998Z,18.72
2019-04-16T12:16:07.031Z,18.15
2019-04-16T12:17:07.142Z,17.97
2019-04-16T12:18:07.110Z,19.32
2019-04-16T12:19:07.086Z,19.02
2019-04-16T12:20:07.089Z,18.92
2019-04-16T12:21:06.978Z,18.24
2019-04-16T12:22:07.168Z,19.11
2019-04-16T12:23:07.111Z,17.63
2019-04-16T12:24:06.950Z,18.13
2019-04-16T12:25:07.104Z,18.13
2019-04-16T12:26:09.528Z,18.91
2019-04-16T12:27:07.181Z,19.02
2019-04-16T12:28:11.606Z,19.32
2019-04-16T12:29:07.991Z,18.56
2019-04-16T12:30:07.079Z,19.36
2019-04-16T12:31:06.963Z,19.96
2019-04-16T12:32:07.195Z,19.65
2019-04-16T12:33:08.759Z,19.76
2019-04-16T12:34:06.980Z,19.47
2019-04-16T12:35:06.932Z,20.65
2019-04-16T12:36:07.045Z,20.15
2019-04-16T12:37:07.440Z,19.65
2019-04-16T12:38:12.264Z,19.45
2019-04-16T12:39:06.897Z,18.85
2019-04-16T12:40:06.788Z,19.84
2019-04-16T12:41:06.895Z,19.49
2019-04-16T12:42:06.800Z,20.01
2019-04-16T12:43:06.761Z,20.62
2019-04-16T12:44:06.741Z,20.84
2019-04-16T12:45:08.618Z,21.84
2019-04-16T12:46:06.751Z,22.83
2019-04-16T12:47:06.755Z,22.63
2019-04-16T12:48:06.751Z,23.10
2019-04-16T12:49:06.744Z,22.50
2019-04-16T12:50:06.714Z,22.39
2019-04-16T12:51:06.715Z,21.80
2019-04-16T12:52:06.858Z,22.30